METAR Data
IDs: Format: Raw Decoded Include TAF

Data at: 1800 UTC 21 Sep 2018

KBGD 211751Z AUTO 02018G24KT 10SM OVC006 18/16 A3022 RMK AO2 PK WND 01027/1740 RAB1654E03 SLP203 P0000 60003 T01830156 10217 20178 51021
KBGD 211730Z AUTO 01019KT 10SM BKN007 OVC011 18/16 A3021 RMK AO2 PK WND 01026/1719 RAB1654E03 P0000 T01830156
KBGD 211651Z AUTO 02021G25KT 10SM BKN013 OVC021 21/18 A3020 RMK AO2 RAB04E14 SLP193 P0000 T02110178
KBGD 211617Z AUTO 02018KT 10SM BKN013 BKN046 BKN055 21/17 A3019 RMK AO2 RAB04E14 P0000 T02110172
KBGD 211612Z AUTO 02015G22KT 10SM -RA SCT013 BKN032 OVC055 21/17 A3019 RMK AO2 RAB04 P0000 T02110172
KBGD 211558Z AUTO 02012G21KT 10SM SCT011 BKN021 OVC044 21/17 A3018 RMK AO2 T02060172
KBGD 211551Z AUTO 02016G21KT 10SM BKN012 BKN019 OVC044 21/17 A3017 RMK AO2 SLP186 T02060172
KBGD 211547Z AUTO 01019KT 10SM FEW009 BKN012 OVC044 21/17 A3017 RMK AO2
KBGD 211541Z AUTO 01015KT 10SM SCT010 BKN017 OVC030 21/18 A3017 RMK AO2 T02060178
KBGD 211517Z AUTO 03013G21KT 10SM BKN010 BKN017 OVC023 20/18 A3016 RMK AO2 CIG 007V013 T02000178
KBGD 211451Z AUTO 04011KT 10SM BKN009 BKN120 19/18 A3015 RMK AO2 CIG 007V012 SLP177 60003 T01940178 51028
KBGD 211444Z AUTO 03011KT 10SM BKN009 BKN110 19/18 A3015 RMK AO2 CIG 007V016 T01940178
KBGD 211436Z AUTO 03010KT 10SM SCT009 BKN013 OVC110 19/17 A3014 RMK AO2 T01940172
KBGD 211351Z AUTO 02010KT 10SM OVC100 19/17 A3013 RMK AO2 RAE19 SLP170 P0001 T01890172
KBGD 211258Z AUTO 02010KT 10SM -RA FEW006 SCT060 OVC095 19/18 A3011 RMK AO2 P0000 T01940178
KBGD 211251Z AUTO 02010KT 10SM -RA SCT005 BKN020 OVC095 19/18 A3010 RMK AO2 RAE1156B27 SLP152 P0002 T01940183
KBGD 211229Z AUTO 04012KT 8SM -RA FEW003 BKN020 OVC110 19/18 A3009 RMK AO2 RAE1156B27 P0001 T01890178
KBGD 211151Z AUTO 05005KT 10SM -RA SCT090 BKN110 19/18 A3006 RMK AO2 RAB07 SLP136 P0002 60002 70051 T01940178 10211 20194 53018
KBGD 211051Z AUTO 04007KT 10SM SCT015 BKN080 OVC100 20/18 A3003 RMK AO2 RAB13E22 SLP127 P0000 T02000178
KBGD 210951Z AUTO 07003KT 10SM OVC110 21/19 A3001 RMK AO2 SLP118 T02060189
KBGD 210851Z AUTO 09004KT 10SM OVC100 21/19 A3000 RMK AO2 SLP111 T02060189 53016
KBGD 210751Z AUTO 11006KT 10SM SCT110 21/18 A2998 RMK AO2 SLP104 T02060183
KBGD 210651Z AUTO 12009KT 10SM FEW110 21/18 A2996 RMK AO2 SLP099 T02060183
KBGD 210551Z AUTO 11005KT 10SM CLR 21/19 A2995 RMK AO2 SLP095 60049 T02060189 10306 20200 403390200 50002
KBGD 210451Z AUTO 21003KT 10SM CLR 21/19 A2996 RMK AO2 RAE26 SLP101 P0001 T02060189
KBGD 210351Z AUTO 01007KT 6SM RA BR FEW080 BKN100 OVC110 21/19 A2996 RMK AO2 LTG DSNT E AND SE SLP104 P0011 T02060189
KBGD 210341Z AUTO 13005KT 5SM RA FEW075 OVC100 21/18 A2995 RMK AO2 LTG DSNT NE-SE P0009 T02110183
KBGD 210311Z AUTO 23004KT 6SM VCTS -RA BR FEW070 BKN095 OVC110 20/18 A2995 RMK AO2 LTG DSNT E AND SE P0002 T02000183
KBGD 210251Z AUTO 29004KT 3SM RA BR SCT048 BKN070 OVC090 20/18 A2994 RMK AO2 PK WND 27026/0153 LTG DSNT NE AND S TSE01 SLP101 P0029 60037 T02000183 53030
KBGD 210236Z AUTO 32005KT 1 3/4SM +RA BR SCT045 BKN070 OVC110 21/19 A2993 RMK AO2 PK WND 27026/0153 LTG DSNT NE TSE01 P0022 T02060189
KBGD 210213Z AUTO 28007KT 9SM -RA SCT050 BKN075 OVC110 22/18 A2991 RMK AO2 PK WND 27026/0153 TSE01 P0010 T02170183
KBGD 210204Z AUTO 32010G21KT 3SM VCTS -RA FEW039 BKN055 OVC080 21/18 A2991 RMK AO2 PK WND 27026/0153 LTG DSNT N TSE01 P0009 T02060178
KBGD 210151Z AUTO 28014G27KT 2 1/2SM +TSRA BR FEW036 OVC060 21/19 A2991 RMK AO2 PK WND 28027/0145 VIS 1 1/2V5 LTG DSNT N RAB40 TSB32 SLP093 P0008 T02110189
KBGD 210138Z AUTO 26010KT 10SM TS FEW046 BKN065 OVC085 23/17 A2991 RMK AO2 TSB32 PRESRR T02330167
KBGD 210051Z AUTO 16013G19KT 10SM SCT080 BKN095 29/14 A2986 RMK AO2 SLP068 T02940139
KBGD 202351Z AUTO 18011G23KT 10SM SCT090 31/13 A2984 RMK AO2 SLP060 T03060133 10339 20306 53005
KBGD 202251Z AUTO 20015G21KT 10SM FEW075 31/13 A2983 RMK AO2 SLP056 T03110128
KBGD 202151Z AUTO 18017G26KT 10SM CLR 32/12 A2982 RMK AO2 PK WND 18028/2137 SLP050 T03170122
KBGD 202051Z AUTO 19015G26KT 10SM FEW080 33/12 A2983 RMK AO2 PK WND 18027/2001 SLP051 T03330122 56025
KBGD 201951Z AUTO 18016G26KT 10SM FEW070 33/14 A2985 RMK AO2 PK WND 20032/1921 SLP058 T03280139
KBGD 201851Z AUTO 20020G27KT 10SM CLR 33/12 A2988 RMK AO2 PK WND 20029/1816 SLP067 T03280122
KBGD 201751Z AUTO 19015G24KT 10SM CLR 31/14 A2991 RMK AO2 PK WND 22026/1706 SLP078 T03110139 10311 20206 58012
KBGD 201651Z AUTO 22015G22KT 10SM CLR 29/15 A2993 RMK AO2 PK WND 20028/1641 SLP087 T02940150
KBGD 201551Z AUTO 20016G24KT 10SM CLR 27/16 A2995 RMK AO2 SLP095 T02670156
KBGD 201451Z AUTO 19016G23KT 10SM CLR 24/17 A2995 RMK AO2 PK WND 20026/1437 SLP095 T02440167 51009
KBGD 201351Z AUTO 19011G18KT 10SM CLR 22/17 A2994 RMK AO2 SLP096 T02220167
KBGD 201251Z AUTO 18010KT 10SM CLR 21/16 A2993 RMK AO2 SLP091 T02060161
KBGD 201151Z AUTO 19008KT 10SM CLR 21/17 A2992 RMK AO2 SLP085 T02110167 10256 20211 53008
KBGD 201051Z AUTO 18012G18KT 10SM CLR 22/17 A2989 RMK AO2 SLP075 T02220167
KBGD 200951Z AUTO 19010G18KT 10SM CLR 23/17 A2988 RMK AO2 SLP071 T02280167
KBGD 200851Z AUTO 19011G20KT 10SM CLR 23/17 A2989 RMK AO2 SLP073 T02330167 56007
KBGD 200751Z AUTO 18013G20KT 10SM CLR 24/16 A2990 RMK AO2 SLP075 T02390161
KBGD 200651Z AUTO 18014G23KT 10SM CLR 25/16 A2991 RMK AO2 PK WND 19027/0619 SLP078 T02500161